< < Back
Terminal Aerodrome Forecast


Current Version              Previous Versions:   1  2  3  4  5  6  7  8  9  

Terminal Aerodrome Forecast

912
FTUS42 KILM 271414 AAB
TAFILM
TAF AMD
KILM 271414Z 2714/2812 16012G16KT P6SM VCSH BKN030 BKN250
     FM271900 16012G16KT P6SM SCT040 BKN250
     FM280200 VRB03KT P6SM SKC=



Latest METAR

024
SAUS70 KWBC 271600 RRD
MTRILM
METAR KILM 271553Z 17007KT 10SM BKN039 BKN046 27/19 A3026 RMK AO2 SLP248
T02720194


USA.gov is the U.S. government's official web portal to all federal, state and local government web resources and services.